createdAt,value
2022-12-14T00:02:32.052Z,7.25
2022-12-14T00:05:37.511Z,6.72
2022-12-14T00:08:42.064Z,6.30
2022-12-14T00:11:44.740Z,8.20
2022-12-14T00:14:47.928Z,6.43
2022-12-14T00:17:50.933Z,7.13
2022-12-14T00:20:55.170Z,7.30
2022-12-14T00:23:59.996Z,7.63
2022-12-14T00:27:02.917Z,6.20
2022-12-14T00:30:07.547Z,6.85
2022-12-14T00:33:10.674Z,6.00
2022-12-14T00:36:16.068Z,7.85
2022-12-14T00:39:18.826Z,7.97
2022-12-14T00:42:22.098Z,6.27
2022-12-14T00:45:24.891Z,7.20
2022-12-14T00:48:28.846Z,7.37
2022-12-14T00:51:33.378Z,7.27
2022-12-14T00:54:35.991Z,6.53
2022-12-14T00:57:38.659Z,7.03
2022-12-14T01:00:41.897Z,8.23
2022-12-14T01:03:45.645Z,7.47
2022-12-14T01:06:51.353Z,6.43
2022-12-14T01:09:53.911Z,7.33
2022-12-14T01:12:56.452Z,7.67
2022-12-14T01:16:04.031Z,7.20
2022-12-14T01:19:07.279Z,7.03
2022-12-14T01:22:11.600Z,7.47
2022-12-14T01:25:14.439Z,7.20
2022-12-14T01:28:17.145Z,7.07
2022-12-14T01:31:22.464Z,6.77
2022-12-14T01:34:25.399Z,6.27
2022-12-14T01:37:30.016Z,6.95
2022-12-14T01:40:32.650Z,7.23
2022-12-14T01:43:49.476Z,7.00
2022-12-14T01:46:54.303Z,6.50
2022-12-14T01:50:00.379Z,7.23
2022-12-14T01:53:07.398Z,6.87
2022-12-14T01:56:10.489Z,6.43
2022-12-14T01:59:15.731Z,7.65
2022-12-14T02:02:19.784Z,7.10
2022-12-14T02:05:23.783Z,7.87
2022-12-14T02:11:35.054Z,6.63
2022-12-14T02:14:38.749Z,6.47
2022-12-14T02:17:43.353Z,6.95
2022-12-14T02:20:57.401Z,7.27
2022-12-14T02:24:24.735Z,7.43
2022-12-14T02:27:42.475Z,7.40
2022-12-14T02:30:52.564Z,7.03
2022-12-14T02:33:59.012Z,7.13
2022-12-14T02:37:06.382Z,7.70
2022-12-14T02:40:20.330Z,6.93
2022-12-14T02:43:28.350Z,7.85
2022-12-14T02:46:39.603Z,7.50
2022-12-14T02:49:54.482Z,7.80
2022-12-14T02:53:02.711Z,7.50
2022-12-14T02:56:09.810Z,7.97
2022-12-14T02:59:13.085Z,8.20
2022-12-14T03:02:17.941Z,8.38
2022-12-14T03:05:22.979Z,7.77
2022-12-14T03:08:27.600Z,8.13
2022-12-14T03:11:34.408Z,8.50
2022-12-14T03:14:39.916Z,9.03
2022-12-14T03:17:46.276Z,8.20
2022-12-14T03:20:53.539Z,8.40
2022-12-14T03:23:57.020Z,8.07
2022-12-14T03:27:02.794Z,8.15
2022-12-14T03:30:08.692Z,7.70
2022-12-14T03:33:16.208Z,8.67
2022-12-14T03:36:23.162Z,8.30
2022-12-14T03:39:29.092Z,7.77
2022-12-14T03:42:34.463Z,9.23
2022-12-14T03:45:42.360Z,8.60
2022-12-14T03:48:49.636Z,8.53
2022-12-14T03:51:58.008Z,9.47
2022-12-14T03:55:11.004Z,8.87
2022-12-14T03:58:28.440Z,8.93
2022-12-14T04:01:40.648Z,9.00
2022-12-14T04:04:49.204Z,8.37
2022-12-14T04:07:57.137Z,8.90
2022-12-14T04:11:19.852Z,8.33
2022-12-14T04:14:42.518Z,9.90
2022-12-14T04:18:04.585Z,9.03
2022-12-14T04:21:13.980Z,9.17
2022-12-14T04:24:42.050Z,10.60
2022-12-14T04:27:49.635Z,8.57
2022-12-14T04:30:51.430Z,8.90
2022-12-14T04:33:56.091Z,9.20
2022-12-14T04:37:02.125Z,10.50
2022-12-14T04:40:07.918Z,9.30
2022-12-14T04:43:14.413Z,9.13
2022-12-14T04:46:19.343Z,10.40
2022-12-14T04:49:25.155Z,9.27
2022-12-14T04:52:33.057Z,9.70
2022-12-14T04:55:38.234Z,9.00
2022-12-14T04:58:41.703Z,9.03
2022-12-14T05:01:49.942Z,9.95
2022-12-14T05:04:58.325Z,9.37
2022-12-14T05:08:09.773Z,8.90
2022-12-14T05:11:50.116Z,9.17
2022-12-14T05:14:44.376Z,10.67
2022-12-14T05:17:47.370Z,9.23
2022-12-14T05:20:50.318Z,9.68
2022-12-14T05:23:54.492Z,10.05
2022-12-14T05:26:57.231Z,10.03
2022-12-14T05:30:00.209Z,10.27
2022-12-14T05:33:03.244Z,10.23
2022-12-14T05:36:06.518Z,8.77
2022-12-14T05:39:10.517Z,9.95
2022-12-14T05:42:13.177Z,9.90
2022-12-14T05:45:16.072Z,9.63
2022-12-14T05:48:18.709Z,9.63
2022-12-14T05:51:21.319Z,10.10
2022-12-14T05:54:25.262Z,10.37
2022-12-14T06:00:30.356Z,9.90
2022-12-14T06:03:33.088Z,10.60
2022-12-14T06:06:35.850Z,10.70
2022-12-14T06:09:40.069Z,10.47
2022-12-14T06:12:43.545Z,10.50
2022-12-14T06:15:46.234Z,11.00
2022-12-14T06:18:51.131Z,10.80
2022-12-14T06:21:53.766Z,12.67
2022-12-14T06:24:57.965Z,12.70
2022-12-14T06:28:00.826Z,11.27
2022-12-14T06:31:03.985Z,11.10
2022-12-14T06:34:06.738Z,11.55
2022-12-14T06:37:09.411Z,12.60
2022-12-14T06:40:13.857Z,11.63
2022-12-14T06:43:16.561Z,12.53
2022-12-14T06:46:21.224Z,12.57
2022-12-14T06:49:23.893Z,12.50
2022-12-14T06:52:27.363Z,11.40
2022-12-14T06:55:32.092Z,12.23
2022-12-14T06:58:34.804Z,12.70
2022-12-14T07:01:38.331Z,13.10
2022-12-14T07:04:42.977Z,12.63
2022-12-14T07:07:45.873Z,13.13
2022-12-14T07:10:49.904Z,11.27
2022-12-14T07:13:52.651Z,12.60
2022-12-14T07:16:55.392Z,11.57
2022-12-14T07:19:58.091Z,12.87
2022-12-14T07:23:00.818Z,12.47
2022-12-14T07:26:06.999Z,13.73
2022-12-14T07:29:12.006Z,12.97
2022-12-14T07:32:15.605Z,11.60
2022-12-14T07:35:18.439Z,14.88
2022-12-14T07:38:21.134Z,12.87
2022-12-14T07:41:26.850Z,13.93
2022-12-14T07:44:29.399Z,13.77
2022-12-14T07:47:32.251Z,12.77
2022-12-14T07:50:35.582Z,12.70
2022-12-14T07:53:39.385Z,12.90
2022-12-14T07:59:46.608Z,12.73
2022-12-14T08:02:49.477Z,12.53
2022-12-14T08:05:52.651Z,13.30
2022-12-14T08:08:55.801Z,13.20
2022-12-14T08:12:00.274Z,12.27
2022-12-14T08:15:03.136Z,14.20
2022-12-14T08:18:05.772Z,12.20
2022-12-14T08:21:09.382Z,14.20
2022-12-14T08:24:12.669Z,14.27
2022-12-14T08:27:16.861Z,13.30
2022-12-14T08:30:19.496Z,13.23
2022-12-14T08:33:23.251Z,14.07
2022-12-14T08:36:28.061Z,13.75
2022-12-14T08:39:30.729Z,13.20
2022-12-14T08:42:34.938Z,14.13
2022-12-14T08:45:37.538Z,12.80
2022-12-14T08:48:40.187Z,12.43
2022-12-14T08:51:43.087Z,14.60
2022-12-14T08:54:45.731Z,13.23
2022-12-14T08:57:50.017Z,14.87
2022-12-14T09:01:01.442Z,13.37
2022-12-14T09:04:05.626Z,14.70
2022-12-14T09:07:08.339Z,14.77
2022-12-14T09:10:11.392Z,14.20
2022-12-14T09:13:15.789Z,13.38
2022-12-14T09:16:20.589Z,14.83
2022-12-14T09:19:23.511Z,16.50
2022-12-14T09:22:27.173Z,13.07
2022-12-14T09:25:29.813Z,15.02
2022-12-14T09:28:36.933Z,16.63
2022-12-14T09:31:39.559Z,15.63
2022-12-14T09:34:42.339Z,15.30
2022-12-14T09:37:45.105Z,15.73
2022-12-14T09:40:57.373Z,14.60
2022-12-14T09:44:09.626Z,15.10
2022-12-14T09:47:19.172Z,14.67
2022-12-14T09:50:22.876Z,15.07
2022-12-14T09:53:26.310Z,15.18
2022-12-14T09:56:29.035Z,15.80
2022-12-14T09:59:33.966Z,15.33
2022-12-14T10:02:44.047Z,16.07
2022-12-14T10:05:59.579Z,16.20
2022-12-14T10:09:10.259Z,15.20
2022-12-14T10:12:21.412Z,16.13
2022-12-14T10:15:29.955Z,15.63
2022-12-14T10:19:02.619Z,15.30
2022-12-14T10:22:12.230Z,16.60
2022-12-14T10:25:16.845Z,15.60
2022-12-14T10:28:21.934Z,16.50
2022-12-14T10:31:31.821Z,16.70
2022-12-14T10:34:35.857Z,15.17
2022-12-14T10:40:49.432Z,14.77
2022-12-14T10:43:57.415Z,16.33
2022-12-14T10:47:05.447Z,15.93
2022-12-14T10:50:18.769Z,17.17
2022-12-14T10:53:25.091Z,17.17
2022-12-14T10:56:31.650Z,17.47
2022-12-14T10:59:40.638Z,17.53
2022-12-14T11:02:52.001Z,15.90
2022-12-14T11:05:59.414Z,17.23
2022-12-14T11:09:02.318Z,16.37
2022-12-14T11:12:07.762Z,16.57
2022-12-14T11:15:25.375Z,16.20
2022-12-14T11:18:32.199Z,16.73
2022-12-14T11:21:37.293Z,16.13
2022-12-14T11:24:47.755Z,16.60
2022-12-14T11:27:50.749Z,16.87
2022-12-14T11:30:56.904Z,17.45
2022-12-14T11:34:02.357Z,16.30
2022-12-14T11:37:15.832Z,16.93
2022-12-14T11:40:25.138Z,16.92
2022-12-14T11:43:29.490Z,17.07
2022-12-14T11:46:44.982Z,18.43
2022-12-14T11:49:51.279Z,16.27
2022-12-14T11:53:11.025Z,18.20
2022-12-14T11:56:17.042Z,16.83
2022-12-14T11:59:20.394Z,17.70
2022-12-14T12:02:28.549Z,16.65
2022-12-14T12:05:34.805Z,17.00
2022-12-14T12:08:39.070Z,18.60
2022-12-14T12:11:46.138Z,16.67
2022-12-14T12:14:55.652Z,16.80
2022-12-14T12:18:02.685Z,16.97
2022-12-14T12:21:11.239Z,17.70
2022-12-14T12:24:18.165Z,17.17
2022-12-14T12:27:21.412Z,18.13
2022-12-14T12:30:28.699Z,17.80
2022-12-14T12:33:36.294Z,17.77
2022-12-14T12:36:56.857Z,19.50
2022-12-14T12:40:06.271Z,18.93
2022-12-14T12:43:14.445Z,17.30
2022-12-14T12:46:19.799Z,18.33
2022-12-14T12:49:23.304Z,16.63
2022-12-14T12:52:30.507Z,18.48
2022-12-14T12:55:37.422Z,15.47
2022-12-14T12:58:40.749Z,18.10
2022-12-14T13:01:46.076Z,17.55
2022-12-14T13:04:52.840Z,17.47
2022-12-14T13:07:59.735Z,17.73
2022-12-14T13:14:31.205Z,17.50
2022-12-14T13:17:39.373Z,17.90
2022-12-14T13:20:42.110Z,17.57
2022-12-14T13:23:46.256Z,14.67
2022-12-14T13:27:15.297Z,17.13
2022-12-14T13:30:29.668Z,20.43
2022-12-14T13:33:50.886Z,18.23
2022-12-14T13:37:16.339Z,18.10
2022-12-14T13:40:54.774Z,18.23
2022-12-14T13:44:14.237Z,18.20
2022-12-14T13:47:23.409Z,17.63
2022-12-14T13:50:41.900Z,18.90
2022-12-14T13:53:55.093Z,16.73
2022-12-14T13:57:05.823Z,17.60
2022-12-14T14:00:37.797Z,17.80
2022-12-14T14:03:46.099Z,17.10
2022-12-14T14:06:50.436Z,17.50
2022-12-14T14:10:01.700Z,17.40
2022-12-14T14:13:44.855Z,11.50
2022-12-14T14:16:57.579Z,16.90
2022-12-14T14:20:01.779Z,18.77
2022-12-14T14:23:30.234Z,18.03
2022-12-14T14:26:34.778Z,17.37
2022-12-14T14:29:38.196Z,17.00
2022-12-14T14:32:43.414Z,16.00
2022-12-14T14:35:49.728Z,17.83
2022-12-14T14:38:53.345Z,15.47
2022-12-14T14:45:01.367Z,14.87
2022-12-14T14:48:11.698Z,17.40
2022-12-14T14:51:20.954Z,16.63
2022-12-14T14:57:57.872Z,17.60
2022-12-14T15:01:19.441Z,18.67
2022-12-14T15:04:24.363Z,17.60
2022-12-14T15:07:30.246Z,18.50
2022-12-14T15:10:36.374Z,17.00
2022-12-14T15:13:46.624Z,15.23
2022-12-14T15:16:49.280Z,17.33
2022-12-14T15:19:54.881Z,10.77
2022-12-14T15:22:58.406Z,8.97
2022-12-14T15:26:03.169Z,14.02
2022-12-14T15:29:06.336Z,15.13
2022-12-14T15:32:16.147Z,15.50
2022-12-14T15:35:24.683Z,17.43
2022-12-14T15:38:31.028Z,11.87
2022-12-14T15:41:34.570Z,14.97
2022-12-14T15:44:37.411Z,12.40
2022-12-14T15:47:40.179Z,14.10
2022-12-14T15:50:45.737Z,15.87
2022-12-14T15:53:50.875Z,16.10
2022-12-14T15:56:57.097Z,15.80
2022-12-14T16:00:00.052Z,15.77
2022-12-14T16:03:06.157Z,10.32
2022-12-14T16:06:11.083Z,14.17
2022-12-14T16:09:20.269Z,15.33
2022-12-14T16:12:26.199Z,14.10
2022-12-14T16:15:30.132Z,12.87
2022-12-14T16:21:37.417Z,15.13
2022-12-14T16:24:54.000Z,14.67
2022-12-14T16:27:57.395Z,12.63
2022-12-14T16:31:02.793Z,15.48
2022-12-14T16:34:09.440Z,15.13
2022-12-14T16:37:34.034Z,15.37
2022-12-14T16:40:39.008Z,14.97
2022-12-14T16:43:42.969Z,14.93
2022-12-14T16:49:55.971Z,12.18
2022-12-14T16:53:16.289Z,14.43
2022-12-14T16:56:20.641Z,13.30
2022-12-14T16:59:24.787Z,14.83
2022-12-14T17:02:31.107Z,15.67
2022-12-14T17:05:36.092Z,14.47
2022-12-14T17:08:40.675Z,15.97
2022-12-14T17:11:43.508Z,15.63
2022-12-14T17:14:49.872Z,15.80
2022-12-14T17:17:55.016Z,12.57
2022-12-14T17:20:57.945Z,14.83
2022-12-14T17:24:02.196Z,14.18
2022-12-14T17:27:05.257Z,15.00
2022-12-14T17:30:09.143Z,13.65
2022-12-14T17:36:14.490Z,13.80
2022-12-14T17:39:18.680Z,16.63
2022-12-14T17:42:22.938Z,7.60
2022-12-14T17:45:27.351Z,13.73
2022-12-14T17:48:29.994Z,13.87
2022-12-14T17:51:33.008Z,12.37
2022-12-14T17:54:37.006Z,13.77
2022-12-14T17:57:39.871Z,13.83
2022-12-14T18:01:01.122Z,12.73
2022-12-14T18:04:04.133Z,13.40
2022-12-14T18:07:07.040Z,13.85
2022-12-14T18:10:14.863Z,15.77
2022-12-14T18:13:17.533Z,11.83
2022-12-14T18:16:22.096Z,13.80
2022-12-14T18:19:25.045Z,13.67
2022-12-14T18:22:27.958Z,13.53
2022-12-14T18:25:33.833Z,13.52
2022-12-14T18:28:37.573Z,12.87
2022-12-14T18:31:40.461Z,14.38
2022-12-14T18:34:43.245Z,12.52
2022-12-14T18:37:49.481Z,13.37
2022-12-14T18:40:55.168Z,14.37
2022-12-14T18:43:57.889Z,14.53
2022-12-14T18:47:20.493Z,13.83
2022-12-14T18:50:24.354Z,14.40
2022-12-14T18:56:31.579Z,13.30
2022-12-14T18:59:37.819Z,15.27
2022-12-14T19:02:46.965Z,14.23
2022-12-14T19:05:53.197Z,11.83
2022-12-14T19:08:56.995Z,15.27
2022-12-14T19:15:03.813Z,12.43
2022-12-14T19:18:06.595Z,9.63
2022-12-14T19:21:09.129Z,14.47
2022-12-14T19:24:13.623Z,15.43
2022-12-14T19:27:30.296Z,13.13
2022-12-14T19:30:40.851Z,14.45
2022-12-14T19:33:43.541Z,12.65
2022-12-14T19:36:46.362Z,15.63
2022-12-14T19:39:49.109Z,13.17
2022-12-14T19:42:53.046Z,16.03
2022-12-14T19:48:59.853Z,15.07
2022-12-14T19:52:02.469Z,16.53
2022-12-14T19:55:05.704Z,13.40
2022-12-14T19:58:09.642Z,14.43
2022-12-14T20:01:13.532Z,15.33
2022-12-14T20:07:19.284Z,14.77
2022-12-14T20:10:22.056Z,15.88
2022-12-14T20:13:28.493Z,17.50
2022-12-14T20:16:31.301Z,16.43
2022-12-14T20:19:34.074Z,15.53
2022-12-14T20:22:36.911Z,16.63
2022-12-14T20:25:39.515Z,15.40
2022-12-14T20:28:43.755Z,16.43
2022-12-14T20:31:46.642Z,17.73
2022-12-14T20:34:49.744Z,16.42
2022-12-14T20:37:53.727Z,18.30
2022-12-14T20:40:56.639Z,17.37
2022-12-14T20:44:02.097Z,16.67
2022-12-14T20:47:05.054Z,17.03
2022-12-14T20:50:08.176Z,16.00
2022-12-14T20:53:11.067Z,17.27
2022-12-14T20:56:14.227Z,16.48
2022-12-14T20:59:18.646Z,15.70
2022-12-14T21:02:21.709Z,17.37
2022-12-14T21:05:24.819Z,15.48
2022-12-14T21:08:27.853Z,15.98
2022-12-14T21:11:48.451Z,16.30
2022-12-14T21:14:55.402Z,16.13
2022-12-14T21:17:58.252Z,16.63
2022-12-14T21:21:05.686Z,17.47
2022-12-14T21:24:09.714Z,17.93
2022-12-14T21:27:17.023Z,17.07
2022-12-14T21:30:21.341Z,16.60
2022-12-14T21:33:24.006Z,16.87
2022-12-14T21:36:26.653Z,17.70
2022-12-14T21:39:29.203Z,17.97
2022-12-14T21:42:33.631Z,17.95
2022-12-14T21:45:37.952Z,19.15
2022-12-14T21:48:41.394Z,17.70
2022-12-14T21:51:44.397Z,18.40
2022-12-14T21:54:47.081Z,17.77
2022-12-14T21:58:07.471Z,17.43
2022-12-14T22:01:11.567Z,17.90
2022-12-14T22:04:14.168Z,16.47
2022-12-14T22:07:17.739Z,17.97
2022-12-14T22:10:24.888Z,17.33
2022-12-14T22:13:29.130Z,17.00
2022-12-14T22:16:35.271Z,18.77
2022-12-14T22:19:38.293Z,18.43
2022-12-14T22:22:41.149Z,18.67
2022-12-14T22:25:50.071Z,18.30
2022-12-14T22:28:53.372Z,20.10
2022-12-14T22:31:57.739Z,17.52
2022-12-14T22:35:01.555Z,18.23
2022-12-14T22:41:09.603Z,17.27
2022-12-14T22:44:13.510Z,18.75
2022-12-14T22:50:20.834Z,16.90
2022-12-14T22:53:23.679Z,17.45
2022-12-14T22:56:29.335Z,17.80
2022-12-14T22:59:37.761Z,17.73
2022-12-14T23:02:47.601Z,18.03
2022-12-14T23:05:51.240Z,18.57
2022-12-14T23:09:11.386Z,18.43
2022-12-14T23:12:31.452Z,17.60
2022-12-14T23:15:52.003Z,17.90
2022-12-14T23:19:13.762Z,18.60
2022-12-14T23:22:34.047Z,18.07
2022-12-14T23:25:54.330Z,18.27
2022-12-14T23:29:14.803Z,18.03
2022-12-14T23:32:35.277Z,18.87
2022-12-14T23:35:56.719Z,17.97
2022-12-14T23:39:17.200Z,17.17
2022-12-14T23:42:37.423Z,16.87
2022-12-14T23:45:57.875Z,17.23
2022-12-14T23:49:18.277Z,16.90
2022-12-14T23:52:39.805Z,18.03
2022-12-14T23:56:00.205Z,18.70
2022-12-14T23:59:22.708Z,18.03
